Map

Track Data

SID SEASON NUMBER BASIN SUBBASIN NAME ISO_TIME NATURE LAT LON WMO_WIND WMO_PRES WMO_AGENCY TRACK_TYPE DIST2LAND LANDFALL IFLAG USA_AGENCY USA_ATCF_ID USA_LAT USA_LON USA_RECORD USA_STATUS USA_WIND USA_PRES USA_SSHS USA_R34_NE USA_R34_SE USA_R34_SW USA_R34_NW USA_R50_NE USA_R50_SE USA_R50_SW USA_R50_NW USA_R64_NE USA_R64_SE USA_R64_SW USA_R64_NW USA_POCI USA_ROCI USA_RMW USA_EYE TOKYO_LAT TOKYO_LON TOKYO_GRADE TOKYO_WIND TOKYO_PRES TOKYO_R50_DIR TOKYO_R50_LONG TOKYO_R50_SHORT TOKYO_R30_DIR TOKYO_R30_LONG TOKYO_R30_SHORT TOKYO_LAND CMA_LAT CMA_LON CMA_CAT CMA_WIND CMA_PRES HKO_LAT HKO_LON HKO_CAT HKO_WIND HKO_PRES NEWDELHI_LAT NEWDELHI_LON NEWDELHI_GRADE NEWDELHI_WIND NEWDELHI_PRES NEWDELHI_CI NEWDELHI_DP NEWDELHI_POCI REUNION_LAT REUNION_LON REUNION_TYPE REUNION_WIND REUNION_PRES REUNION_TNUM REUNION_CI REUNION_RMW REUNION_R34_NE REUNION_R34_SE REUNION_R34_SW REUNION_R34_NW REUNION_R50_NE REUNION_R50_SE REUNION_R50_SW REUNION_R50_NW REUNION_R64_NE REUNION_R64_SE REUNION_R64_SW REUNION_R64_NW BOM_LAT BOM_LON BOM_TYPE BOM_WIND BOM_PRES BOM_TNUM BOM_CI BOM_RMW BOM_R34_NE BOM_R34_SE BOM_R34_SW BOM_R34_NW BOM_R50_NE BOM_R50_SE BOM_R50_SW BOM_R50_NW BOM_R64_NE BOM_R64_SE BOM_R64_SW BOM_R64_NW BOM_ROCI BOM_POCI BOM_EYE BOM_POS_METHOD BOM_PRES_METHOD NADI_LAT NADI_LON NADI_CAT NADI_WIND NADI_PRES WELLINGTON_LAT WELLINGTON_LON WELLINGTON_WIND WELLINGTON_PRES DS824_LAT DS824_LON DS824_STAGE DS824_WIND DS824_PRES TD9636_LAT TD9636_LON TD9636_STAGE TD9636_WIND TD9636_PRES TD9635_LAT TD9635_LON TD9635_WIND TD9635_PRES TD9635_ROCI NEUMANN_LAT NEUMANN_LON NEUMANN_CLASS NEUMANN_WIND NEUMANN_PRES MLC_LAT MLC_LON MLC_CLASS MLC_WIND MLC_PRES USA_GUST BOM_GUST BOM_GUST_PER REUNION_GUST REUNION_GUST_PER USA_SEAHGT USA_SEARAD_NE USA_SEARAD_SE USA_SEARAD_SW USA_SEARAD_NW STORM_SPEED STORM_DIR
1932092S09460 1932 20 SI WA NOT_NAMED 1932-03-31 18:00:00 NR -8.90000 100.400 main 560 560 __________O___ -1 -8.90000 100.400 7 8 227
1932092S09460 1932 20 SI WA NOT_NAMED 1932-03-31 21:00:00 NR -9.17523 100.104 main 606 606 __________P___ -1 -9.17523 100.104 7 8 227
1932092S09460 1932 20 SI WA NOT_NAMED 1932-04-01 00:00:00 NR -9.44026 99.8155 main 644 644 __________P___ -1 -9.44026 99.8155 7 8 227
1932092S09460 1932 20 SI WA NOT_NAMED 1932-04-01 03:00:00 NR -9.68516 99.5447 main 690 690 __________P___ -1 -9.68516 99.5447 7 7 228
1932092S09460 1932 20 SI WA NOT_NAMED 1932-04-01 06:00:00 NR -9.90000 99.3000 main 722 722 __________O___ -1 -9.90000 99.3000 7 6 229
1932092S09460 1932 20 SI WA NOT_NAMED 1932-04-01 09:00:00 NR -10.0786 99.0880 main 753 753 __________P___ -1 -10.0786 99.0880 7 5 230
1932092S09460 1932 20 SI WA NOT_NAMED 1932-04-01 12:00:00 NR -10.2299 98.9048 main 775 775 __________P___ -1 -10.2299 98.9048 7 4 230
1932092S09460 1932 20 SI WA NOT_NAMED 1932-04-01 15:00:00 NR -10.3662 98.7442 main 806 806 __________P___ -1 -10.3662 98.7442 7 4 228
1932092S09460 1932 20 SI WA NOT_NAMED 1932-04-01 18:00:00 NR -10.5000 98.6000 main 822 822 __________O___ -1 -10.5000 98.6000 7 4 223
1932092S09460 1932 20 SI WA NOT_NAMED 1932-04-01 21:00:00 NR -10.6458 98.4767 main 838 838 __________P___ -1 -10.6458 98.4767 7 4 218
1932092S09460 1932 20 SI WA NOT_NAMED 1932-04-02 00:00:00 NR -10.7923 98.3648 main 862 862 __________P___ -1 -10.7923 98.3648 7 4 217
1932092S09460 1932 20 SI WA NOT_NAMED 1932-04-02 03:00:00 NR -10.9427 98.2455 main 884 884 __________P___ -1 -10.9427 98.2455 7 4 220
1932092S09460 1932 20 SI WA NOT_NAMED 1932-04-02 06:00:00 NR -11.1000 98.1000 main 909 909 __________O___ -1 -11.1000 98.1000 7 5 227
1932092S09460 1932 20 SI WA NOT_NAMED 1932-04-02 09:00:00 NR -11.2679 97.8916 main 940 940 __________P___ -1 -11.2679 97.8916 7 6 232
1932092S09460 1932 20 SI WA NOT_NAMED 1932-04-02 12:00:00 NR -11.4426 97.6576 main 962 962 __________P___ -1 -11.4426 97.6576 7 6 233
1932092S09460 1932 20 SI WA NOT_NAMED 1932-04-02 15:00:00 NR -11.6210 97.4198 main 999 999 __________P___ -1 -11.6210 97.4198 7 6 231
1932092S09460 1932 20 SI WA NOT_NAMED 1932-04-02 18:00:00 NR -11.8000 97.2000 main 1030 1030 __________O___ -1 -11.8000 97.2000 7 5 227
1932092S09460 1932 20 SI WA NOT_NAMED 1932-04-02 21:00:00 NR -11.9627 97.0444 main 1061 1061 __________P___ -1 -11.9627 97.0444 7 4 221
1932092S09460 1932 20 SI WA NOT_NAMED 1932-04-03 00:00:00 NR -12.1273 96.9071 main 1077 1077 __________P___ -1 -12.1273 96.9071 7 4 218
1932092S09460 1932 20 SI WA NOT_NAMED 1932-04-03 03:00:00 NR -12.3033 96.7663 main 1101 1101 __________P___ -1 -12.3033 96.7663 7 5 219
1932092S09460 1932 20 SI WA NOT_NAMED 1932-04-03 06:00:00 NR -12.5000 96.6000 main 1132 1132 __________O___ -1 -12.5000 96.6000 7 6 222
1932092S09460 1932 20 SI WA NOT_NAMED 1932-04-03 09:00:00 NR -12.7244 96.3828 main 1163 1163 __________P___ -1 -12.7244 96.3828 7 7 224
1932092S09460 1932 20 SI WA NOT_NAMED 1932-04-03 12:00:00 NR -12.9700 96.1374 main 1210 1210 __________P___ -1 -12.9700 96.1374 7 7 224
1932092S09460 1932 20 SI WA NOT_NAMED 1932-04-03 15:00:00 NR -13.2306 95.8734 main 1241 1241 __________P___ -1 -13.2306 95.8734 7 7 225
1932092S09460 1932 20 SI WA NOT_NAMED 1932-04-03 18:00:00 NR -13.5000 95.6000 main 1287 1287 __________O___ -1 -13.5000 95.6000 7 7 225
1932092S09460 1932 20 SI WA NOT_NAMED 1932-04-03 21:00:00 NR -13.7555 95.3400 main 1334 1334 __________P___ -1 -13.7555 95.3400 7 7 225
1932092S09460 1932 20 SI WA NOT_NAMED 1932-04-04 00:00:00 NR -14.0198 95.0720 main 1365 1365 __________P___ -1 -14.0198 95.0720 7 8 224
1932092S09460 1932 20 SI WA NOT_NAMED 1932-04-04 03:00:00 NR -14.2992 94.7930 main 1412 1412 __________P___ -1 -14.2992 94.7930 7 8 224
1932092S09460 1932 20 SI WA NOT_NAMED 1932-04-04 06:00:00 NR -14.6000 94.5000 main 1458 1458 __________O___ -1 -14.6000 94.5000 7 9 223
1932092S09460 1932 20 SI WA NOT_NAMED 1932-04-04 09:00:00 NR -14.9325 94.1894 main 1504 1504 __________P___ -1 -14.9325 94.1894 7 9 222
1932092S09460 1932 20 SI WA NOT_NAMED 1932-04-04 12:00:00 NR -15.2849 93.8649 main 1557 1557 __________P___ -1 -15.2849 93.8649 7 10 222
1932092S09460 1932 20 SI WA NOT_NAMED 1932-04-04 15:00:00 NR -15.6449 93.5330 main 1611 1611 __________P___ -1 -15.6449 93.5330 7 10 222
1932092S09460 1932 20 SI WA NOT_NAMED 1932-04-04 18:00:00 NR -16.0000 93.2000 main 1664 1664 __________O___ -1 -16.0000 93.2000 7 9 223
1932092S09460 1932 20 SI WA NOT_NAMED 1932-04-04 21:00:00 NR -16.3361 92.8707 main 1710 1710 __________P___ -1 -16.3361 92.8707 7 9 224
1932092S09460 1932 20 SI WA NOT_NAMED 1932-04-05 00:00:00 NR -16.6649 92.5422 main 1771 1771 __________P___ -1 -16.6649 92.5422 7 9 224
1932092S09460 1932 20 SI WA NOT_NAMED 1932-04-05 03:00:00 NR -16.9861 92.2176 main 1817 1817 __________P___ -1 -16.9861 92.2176 7 9 224
1932092S09460 1932 20 SI WA NOT_NAMED 1932-04-05 06:00:00 NR -17.3000 91.9000 main 1862 1862 __________O___ -1 -17.3000 91.9000 7 9 224
1932092S09460 1932 20 SI WA NOT_NAMED 1932-04-05 09:00:00 NR -17.5989 91.5883 main 1908 1908 __________P___ -1 -17.5989 91.5883 7 8 225
1932092S09460 1932 20 SI WA NOT_NAMED 1932-04-05 12:00:00 NR -17.8923 91.2844 main 1954 1954 __________P___ -1 -17.8923 91.2844 7 8 224
1932092S09460 1932 20 SI WA NOT_NAMED 1932-04-05 15:00:00 NR -18.1896 90.9883 main 1999 1999 __________P___ -1 -18.1896 90.9883 7 8 222
1932092S09460 1932 20 SI WA NOT_NAMED 1932-04-05 18:00:00 NR -18.5000 90.7000 main 2045 2045 __________O___ -1 -18.5000 90.7000 7 9 222
1932092S09460 1932 20 SI WA NOT_NAMED 1932-04-05 21:00:00 NR -18.8276 90.3855 main 2090 2090 __________P___ -1 -18.8276 90.3855 7 9 221
1932092S09460 1932 20 SI WA NOT_NAMED 1932-04-06 00:00:00 NR -19.1702 90.0828 main 2143 2143 __________P___ -1 -19.1702 90.0828 7 9 218
1932092S09460 1932 20 SI MM NOT_NAMED 1932-04-06 03:00:00 NR -19.5276 89.8137 main 2188 2188 __________P___ -1 -19.5276 89.8137 7 9 212
1932092S09460 1932 20 SI MM NOT_NAMED 1932-04-06 06:00:00 NR -19.9000 89.6000 main 2233 2233 __________O___ -1 -19.9000 89.6000 7 9 205
1932092S09460 1932 20 SI MM NOT_NAMED 1932-04-06 09:00:00 NR -20.2975 89.4269 main 2277 2277 __________P___ -1 -20.2975 89.4269 7 9 198
1932092S09460 1932 20 SI MM NOT_NAMED 1932-04-06 12:00:00 NR -20.7071 89.3152 main 2314 2314 __________P___ -1 -20.7071 89.3152 7 8 190
1932092S09460 1932 20 SI MM NOT_NAMED 1932-04-06 15:00:00 NR -21.1132 89.2709 main 2343 2343 __________P___ -1 -21.1132 89.2709 7 8 182
1932092S09460 1932 20 SI MM NOT_NAMED 1932-04-06 18:00:00 NR -21.5000 89.3000 main 2372 2372 __________O___ -1 -21.5000 89.3000 7 8 171
1932092S09460 1932 20 SI MM NOT_NAMED 1932-04-06 21:00:00 NR -21.8559 89.4044 main 2394 2394 __________P___ -1 -21.8559 89.4044 7 7 160
1932092S09460 1932 20 SI MM NOT_NAMED 1932-04-07 00:00:00 NR -22.1855 89.5689 main 2402 2402 __________P___ -1 -22.1855 89.5689 7 7 152
1932092S09460 1932 20 SI MM NOT_NAMED 1932-04-07 03:00:00 NR -22.4973 89.7740 main 2410 2382 __________P___ -1 -22.4973 89.7740 7 7 147
1932092S09460 1932 20 SI WA NOT_NAMED 1932-04-07 06:00:00 NR -22.8000 90.0000 main 2382 __________O___ -1 -22.8000 90.0000 7 7 145

About IBTrACS Database

This database is a web-friendly format of International Best Track Archive for Climate Stewardship (IBTrACS), a global best track data archive curated by NOAA dating back to 1842.

Updated: 2021-12-08